Time;durP1;ratioP1;P1;durP2;ratioP2;P2;SDS_P1;SDS_P2;PMS_P1;PMS_P2;Temp;Humidity;BMP_temperature;BMP_pressure;BME280_temperature;BME280_humidity;BME280_pressure;Samples;Min_cycle;Max_cycle;Signal;HPM_P1;HPM_P2
2022/01/01 00:02:19;;;;;;;47.92;17.55;;;;;;;13.50;100.00;98776.56;5075612;28;20098;-57
2022/01/01 00:04:44;;;;;;;46.35;18.52;;;;;;;13.04;100.00;98773.09;5075737;28;20031;-57
2022/01/01 00:07:10;;;;;;;48.88;19.67;;;;;;;12.81;100.00;98759.13;5076197;28;20040;-55
2022/01/01 00:09:36;;;;;;;51.28;18.08;;;;;;;13.01;100.00;98767.97;5073690;28;20048;-58
2022/01/01 00:12:01;;;;;;;47.88;18.48;;;;;;;12.86;100.00;98772.88;5072629;28;20550;-56
2022/01/01 00:14:27;;;;;;;50.35;19.83;;;;;;;12.97;100.00;98774.25;5076797;28;20059;-57
2022/01/01 00:16:52;;;;;;;44.88;17.60;;;;;;;12.75;100.00;98774.22;5076533;28;20036;-57
2022/01/01 00:19:17;;;;;;;48.40;17.27;;;;;;;12.71;100.00;98784.78;5074593;28;20110;-56
2022/01/01 00:21:43;;;;;;;46.47;16.40;;;;;;;12.91;100.00;98781.41;5076927;28;20126;-57
2022/01/01 00:24:09;;;;;;;46.08;16.38;;;;;;;12.88;100.00;98780.69;5071948;28;20050;-58
2022/01/01 00:26:35;;;;;;;39.08;14.50;;;;;;;13.15;100.00;98784.00;5071380;28;20032;-57
2022/01/01 00:29:00;;;;;;;42.28;14.52;;;;;;;13.01;100.00;98781.06;5078037;28;20101;-57
2022/01/01 00:31:26;;;;;;;39.50;13.45;;;;;;;13.01;100.00;98786.31;5074794;28;20737;-56
2022/01/01 00:33:51;;;;;;;38.53;13.40;;;;;;;12.84;100.00;98792.19;5073030;28;20015;-58
2022/01/01 00:36:17;;;;;;;34.88;12.38;;;;;;;12.74;100.00;98791.69;5070167;28;20100;-59
2022/01/01 00:38:42;;;;;;;39.33;13.73;;;;;;;13.16;100.00;98792.72;5072224;27;20020;-58
2022/01/01 00:41:08;;;;;;;35.60;11.25;;;;;;;12.70;100.00;98790.06;5076568;28;20052;-59
2022/01/01 00:43:33;;;;;;;34.47;12.32;;;;;;;13.16;100.00;98795.34;5074141;28;20024;-59
2022/01/01 00:45:58;;;;;;;39.47;13.25;;;;;;;13.14;100.00;98790.19;5073790;28;20134;-58
2022/01/01 00:48:24;;;;;;;35.38;11.60;;;;;;;13.10;100.00;98797.31;5075481;28;20058;-57
2022/01/01 00:50:49;;;;;;;30.13;11.13;;;;;;;12.87;100.00;98790.31;5072861;28;20068;-57
2022/01/01 00:53:14;;;;;;;45.67;12.90;;;;;;;12.90;100.00;98790.19;5074601;28;20080;-58
2022/01/01 00:55:40;;;;;;;31.13;11.88;;;;;;;12.79;100.00;98797.63;5073634;28;20036;-58
2022/01/01 00:58:05;;;;;;;37.67;11.77;;;;;;;13.32;100.00;98806.13;5074622;28;20036;-59
2022/01/01 01:00:30;;;;;;;40.53;12.75;;;;;;;13.06;100.00;98810.56;5073529;28;20042;-58
2022/01/01 01:02:56;;;;;;;32.88;12.38;;;;;;;13.21;100.00;98817.81;5076310;28;20050;-61
2022/01/01 01:05:21;;;;;;;33.35;11.48;;;;;;;13.24;100.00;98809.84;5077534;28;20044;-58
2022/01/01 01:07:46;;;;;;;38.08;11.40;;;;;;;13.19;100.00;98822.25;5072531;28;20412;-57
2022/01/01 01:10:13;;;;;;;28.90;12.02;;;;;;;13.62;100.00;98822.38;5074152;28;20489;-58
2022/01/01 01:12:48;;;;;;;35.38;12.15;;;;;;;13.48;100.00;98822.94;5076360;28;20038;-59
2022/01/01 01:15:18;;;;;;;27.30;9.48;;;;;;;12.97;100.00;98822.22;5075955;28;20028;-57
2022/01/01 01:17:46;;;;;;;32.42;11.57;;;;;;;13.24;100.00;98819.47;5075686;28;20506;-58
2022/01/01 01:20:12;;;;;;;30.77;11.63;;;;;;;12.96;100.00;98824.91;5074525;28;20735;-58
2022/01/01 01:22:38;;;;;;;36.90;11.88;;;;;;;12.99;100.00;98824.78;5070519;28;20016;-58
2022/01/01 01:25:04;;;;;;;32.60;10.80;;;;;;;13.26;100.00;98823.75;5075386;28;20040;-58
2022/01/01 01:27:30;;;;;;;38.35;12.98;;;;;;;13.87;100.00;98822.22;5074435;28;20232;-58
2022/01/01 01:29:58;;;;;;;44.38;12.88;;;;;;;13.44;100.00;98818.75;5069958;28;20034;-57
2022/01/01 01:32:24;;;;;;;43.40;14.10;;;;;;;14.15;100.00;98815.81;5075022;28;20075;-58
2022/01/01 01:34:49;;;;;;;34.17;10.90;;;;;;;13.00;100.00;98816.03;5075506;28;20108;-57
2022/01/01 01:37:14;;;;;;;33.08;9.32;;;;;;;13.19;100.00;98816.19;5070381;28;20044;-61
2022/01/01 01:39:39;;;;;;;25.42;8.85;;;;;;;12.95;100.00;98823.22;5076460;28;20021;-57
2022/01/01 01:42:05;;;;;;;30.80;10.75;;;;;;;13.60;100.00;98830.31;5076548;28;20048;-58
2022/01/01 01:44:35;;;;;;;30.17;10.18;;;;;;;13.59;100.00;98825.13;5075047;28;20030;-61
2022/01/01 01:47:03;;;;;;;29.73;9.98;;;;;;;13.66;100.00;98829.22;5078586;28;20036;-58
2022/01/01 01:49:31;;;;;;;30.33;9.30;;;;;;;13.16;100.00;98837.25;5075036;28;20020;-60
2022/01/01 01:51:57;;;;;;;25.75;9.15;;;;;;;13.39;100.00;98828.53;5076597;28;20044;-60
2022/01/01 01:54:22;;;;;;;28.60;9.57;;;;;;;13.32;100.00;98829.69;5073730;28;20031;-57
2022/01/01 01:56:48;;;;;;;28.88;9.30;;;;;;;13.18;100.00;98825.81;5074884;28;20037;-58
2022/01/01 01:59:15;;;;;;;29.50;9.52;;;;;;;13.36;100.00;98824.28;5078225;28;20428;-58
2022/01/01 02:01:40;;;;;;;28.60;8.45;;;;;;;12.92;100.00;98829.41;5078211;28;20040;-59
2022/01/01 02:04:06;;;;;;;30.20;11.23;;;;;;;13.72;100.00;98839.44;5078876;28;20026;-59
2022/01/01 02:06:33;;;;;;;29.27;9.15;;;;;;;13.48;100.00;98838.66;5078830;28;20043;-61
2022/01/01 02:08:58;;;;;;;29.35;11.10;;;;;;;13.88;100.00;98839.69;5076685;28;20066;-59
2022/01/01 02:11:24;;;;;;;26.77;10.10;;;;;;;13.83;100.00;98836.41;5079351;28;20086;-57
2022/01/01 02:18:52;;;;;;;26.52;7.85;;;;;;;13.05;100.00;98840.28;5071740;28;20040;-58
2022/01/01 02:21:20;;;;;;;30.67;10.98;;;;;;;13.44;100.00;98850.19;5078822;28;20040;-58
2022/01/01 02:23:46;;;;;;;36.08;11.52;;;;;;;13.39;100.00;98849.50;5073562;28;20388;-56
2022/01/01 02:26:15;;;;;;;32.05;11.50;;;;;;;13.80;100.00;98845.25;5073625;28;20047;-58
2022/01/01 02:28:42;;;;;;;26.58;8.73;;;;;;;13.29;100.00;98844.59;5076908;28;20135;-55
2022/01/01 02:31:08;;;;;;;27.45;8.95;;;;;;;13.57;100.00;98837.44;5072591;28;20147;-56
2022/01/01 02:33:34;;;;;;;19.27;6.60;;;;;;;13.21;100.00;98833.53;5074679;28;20034;-55
2022/01/01 02:35:59;;;;;;;28.88;7.80;;;;;;;12.85;100.00;98844.50;5077485;28;20071;-56
2022/01/01 02:38:25;;;;;;;27.60;8.60;;;;;;;12.88;100.00;98843.53;5076927;28;20056;-57
2022/01/01 02:40:50;;;;;;;27.55;8.93;;;;;;;12.93;100.00;98837.19;5078317;28;20064;-57
2022/01/01 02:43:17;;;;;;;28.95;7.88;;;;;;;12.95;100.00;98841.53;5075772;28;20033;-57
2022/01/01 02:45:43;;;;;;;27.85;8.00;;;;;;;13.39;100.00;98839.03;5081461;28;20071;-57
2022/01/01 02:48:08;;;;;;;25.00;7.80;;;;;;;13.05;100.00;98835.91;5074986;28;20056;-59
2022/01/01 02:50:33;;;;;;;21.85;7.80;;;;;;;13.01;100.00;98838.69;5078575;28;20032;-56
2022/01/01 02:52:59;;;;;;;26.60;8.35;;;;;;;12.98;100.00;98838.81;5078096;28;20379;-57
2022/01/01 02:55:24;;;;;;;28.27;9.23;;;;;;;12.87;100.00;98832.19;5082564;28;20119;-59
2022/01/01 02:57:49;;;;;;;26.85;9.15;;;;;;;13.12;100.00;98846.97;5081467;28;20063;-56
2022/01/01 03:00:15;;;;;;;31.23;9.13;;;;;;;13.03;100.00;98842.09;5096423;27;20123;-58
2022/01/01 03:02:41;;;;;;;26.00;7.25;;;;;;;13.03;100.00;98845.59;5073577;28;20043;-56
2022/01/01 03:05:07;;;;;;;27.75;9.07;;;;;;;13.07;100.00;98849.78;5079240;28;20055;-56
2022/01/01 03:07:35;;;;;;;24.85;6.85;;;;;;;12.81;100.00;98842.91;5081809;28;20756;-58
2022/01/01 03:10:00;;;;;;;32.47;8.35;;;;;;;12.92;100.00;98855.59;5080765;28;20078;-59
2022/01/01 03:12:26;;;;;;;25.80;7.30;;;;;;;12.71;100.00;98859.84;5085771;28;20043;-56
2022/01/01 03:14:51;;;;;;;29.88;9.98;;;;;;;13.41;100.00;98860.78;5084992;28;20595;-57
2022/01/01 03:17:16;;;;;;;27.50;9.50;;;;;;;13.73;100.00;98863.88;5074966;28;20044;-56
2022/01/01 03:19:42;;;;;;;26.83;8.07;;;;;;;13.10;100.00;98859.28;5075234;28;20791;-56
2022/01/01 03:22:07;;;;;;;24.25;7.60;;;;;;;12.94;100.00;98861.66;5080741;28;20123;-59
2022/01/01 03:24:33;;;;;;;27.67;9.52;;;;;;;13.32;100.00;98855.91;5081669;28;20254;-58
2022/01/01 03:27:00;;;;;;;29.23;10.73;;;;;;;13.65;100.00;98858.97;5080966;28;20043;-56
2022/01/01 03:29:28;;;;;;;26.02;9.23;;;;;;;13.52;100.00;98870.84;5083189;28;20034;-56
2022/01/01 03:31:53;;;;;;;29.52;10.13;;;;;;;13.50;100.00;98873.53;5080195;28;20075;-58
2022/01/01 03:34:21;;;;;;;25.20;8.57;;;;;;;13.59;100.00;98870.53;5078930;28;20119;-57
2022/01/01 03:36:46;;;;;;;33.50;9.75;;;;;;;13.15;100.00;98867.84;5083151;28;20036;-56
2022/01/01 03:39:12;;;;;;;31.65;10.02;;;;;;;13.53;100.00;98876.03;5076954;28;20034;-58
2022/01/01 03:41:37;;;;;;;27.63;7.82;;;;;;;12.87;100.00;98874.09;5083736;28;20035;-57
2022/01/01 03:44:03;;;;;;;19.42;6.82;;;;;;;12.82;100.00;98881.25;5081412;28;20028;-58
2022/01/01 03:46:28;;;;;;;22.23;7.15;;;;;;;12.85;100.00;98881.16;5074778;28;20045;-57
2022/01/01 03:48:53;;;;;;;29.70;10.25;;;;;;;13.10;100.00;98886.34;5074969;28;20038;-57
2022/01/01 03:51:19;;;;;;;29.75;11.57;;;;;;;13.82;100.00;98882.75;5080695;28;20043;-57
2022/01/01 03:53:44;;;;;;;27.42;9.07;;;;;;;13.59;100.00;98883.66;5077796;28;20415;-57
2022/01/01 03:56:11;;;;;;;23.48;7.07;;;;;;;13.21;100.00;98880.69;5080153;28;20036;-57
2022/01/01 03:58:36;;;;;;;27.80;9.38;;;;;;;13.46;100.00;98875.41;5079026;28;20530;-57
2022/01/01 04:01:01;;;;;;;24.23;7.82;;;;;;;12.84;100.00;98873.34;5078234;28;20118;-56
2022/01/01 04:03:27;;;;;;;26.80;8.05;;;;;;;13.15;100.00;98873.06;5079285;28;20032;-56
2022/01/01 04:05:52;;;;;;;28.20;8.60;;;;;;;13.29;100.00;98872.56;5078810;28;21076;-60
2022/01/01 04:08:18;;;;;;;23.88;6.57;;;;;;;12.62;100.00;98873.25;5079417;28;20445;-59
2022/01/01 04:10:43;;;;;;;19.73;5.90;;;;;;;12.50;100.00;98870.19;5078240;28;20051;-57
2022/01/01 04:13:09;;;;;;;26.90;7.22;;;;;;;12.56;100.00;98876.13;5079732;28;20493;-59
2022/01/01 04:15:36;;;;;;;23.20;6.28;;;;;;;12.57;100.00;98885.66;5080746;28;20027;-59
2022/01/01 04:18:08;;;;;;;28.42;7.07;;;;;;;12.50;100.00;98878.03;5078252;28;20030;-57
2022/01/01 04:20:33;;;;;;;26.90;7.47;;;;;;;12.68;100.00;98878.28;5077310;28;20059;-58
2022/01/01 04:22:59;;;;;;;25.42;7.35;;;;;;;12.83;100.00;98869.88;5079627;28;20187;-57
2022/01/01 04:25:25;;;;;;;27.88;7.25;;;;;;;12.17;100.00;98874.81;5078845;28;20024;-59
2022/01/01 04:27:52;;;;;;;28.60;8.25;;;;;;;12.48;100.00;98868.50;5080058;28;20025;-60
2022/01/01 04:30:18;;;;;;;27.15;7.75;;;;;;;12.64;100.00;98871.44;5086842;28;20466;-57
2022/01/01 04:32:45;;;;;;;25.90;7.15;;;;;;;12.34;100.00;98869.00;5080397;28;20485;-59
2022/01/01 04:35:11;;;;;;;26.33;6.70;;;;;;;11.92;100.00;98872.97;5077597;28;20024;-59
2022/01/01 04:37:37;;;;;;;25.88;6.80;;;;;;;11.97;100.00;98885.91;5080029;28;20401;-56
2022/01/01 04:40:04;;;;;;;25.10;7.53;;;;;;;12.24;100.00;98880.66;5079112;28;20028;-58
2022/01/01 04:42:30;;;;;;;25.33;6.65;;;;;;;12.00;100.00;98875.34;5076154;28;20043;-57
2022/01/01 04:44:56;;;;;;;26.38;6.72;;;;;;;11.94;100.00;98878.16;5076262;28;20159;-56
2022/01/01 04:47:21;;;;;;;27.05;7.20;;;;;;;12.23;100.00;98876.34;5077507;28;20130;-57
2022/01/01 04:49:47;;;;;;;28.80;7.30;;;;;;;12.39;100.00;98871.44;5081740;28;20071;-57
2022/01/01 04:52:12;;;;;;;27.63;8.98;;;;;;;12.23;100.00;98871.97;5081162;28;20033;-57
2022/01/01 04:54:42;;;;;;;26.95;10.02;;;;;;;12.81;100.00;98874.31;5078467;28;20031;-56
2022/01/01 04:57:07;;;;;;;28.15;8.95;;;;;;;12.61;100.00;98871.53;5077941;28;20739;-57
2022/01/01 04:59:34;;;;;;;28.27;8.10;;;;;;;12.64;100.00;98872.28;5078980;28;20059;-57
2022/01/01 05:02:00;;;;;;;29.13;7.70;;;;;;;12.36;100.00;98872.41;5074635;28;20069;-59
2022/01/01 05:04:25;;;;;;;20.13;6.32;;;;;;;12.40;100.00;98874.00;5080784;28;20015;-57
2022/01/01 05:06:51;;;;;;;28.90;8.23;;;;;;;12.62;100.00;98878.50;5077797;28;20157;-57
2022/01/01 05:09:18;;;;;;;24.95;7.40;;;;;;;12.58;100.00;98871.66;5077888;28;20040;-58
2022/01/01 05:11:44;;;;;;;29.50;8.13;;;;;;;12.79;100.00;98876.16;5080140;28;20043;-58
2022/01/01 05:14:10;;;;;;;27.35;8.45;;;;;;;12.49;100.00;98878.91;5076721;28;20044;-57
2022/01/01 05:16:35;;;;;;;24.17;7.05;;;;;;;12.34;100.00;98879.47;5075434;28;20044;-59
2022/01/01 05:19:00;;;;;;;24.13;7.22;;;;;;;12.47;100.00;98883.34;5080952;28;20037;-57
2022/01/01 05:21:30;;;;;;;32.95;8.85;;;;;;;12.43;100.00;98883.53;5078425;28;20886;-57
2022/01/01 05:23:56;;;;;;;27.10;8.20;;;;;;;12.63;100.00;98893.31;5080909;28;20011;-58
2022/01/01 05:26:21;;;;;;;31.48;10.13;;;;;;;13.19;100.00;98884.28;5093586;27;20046;-57
2022/01/01 05:28:49;;;;;;;24.15;7.68;;;;;;;12.88;100.00;98891.53;5078746;28;20073;-60
2022/01/01 05:31:14;;;;;;;23.83;8.23;;;;;;;13.24;100.00;98883.22;5073797;28;20044;-58
2022/01/01 05:33:39;;;;;;;23.42;7.25;;;;;;;12.81;100.00;98892.66;5072279;28;20032;-58
2022/01/01 05:36:05;;;;;;;21.35;6.95;;;;;;;12.98;100.00;98899.06;5081051;28;20036;-57
2022/01/01 05:38:30;;;;;;;24.25;8.57;;;;;;;13.14;100.00;98901.94;5077928;28;20036;-57
2022/01/01 05:40:56;;;;;;;27.65;8.48;;;;;;;12.95;100.00;98901.78;5079848;28;20040;-57
2022/01/01 05:43:21;;;;;;;33.95;8.15;;;;;;;12.44;100.00;98891.34;5079957;28;20027;-59
2022/01/01 05:45:47;;;;;;;20.13;7.47;;;;;;;12.83;100.00;98898.69;5073079;28;20040;-58
2022/01/01 05:48:12;;;;;;;25.85;7.25;;;;;;;12.43;100.00;98905.31;5081002;28;20034;-57
2022/01/01 05:50:37;;;;;;;24.17;7.53;;;;;;;12.75;100.00;98908.56;5077861;28;20477;-57
2022/01/01 05:53:03;;;;;;;26.00;7.35;;;;;;;12.58;100.00;98905.69;5076107;28;20040;-58
2022/01/01 05:55:28;;;;;;;28.52;8.63;;;;;;;12.77;100.00;98909.34;5078285;28;20031;-57
2022/01/01 05:57:54;;;;;;;24.83;7.22;;;;;;;12.85;100.00;98909.97;5078694;28;20531;-58
2022/01/01 06:00:19;;;;;;;29.05;9.32;;;;;;;12.97;100.00;98906.03;5077950;28;20044;-59
2022/01/01 06:02:45;;;;;;;23.90;7.03;;;;;;;12.61;100.00;98905.56;5079898;28;20033;-60
2022/01/01 06:05:10;;;;;;;28.35;7.60;;;;;;;12.59;100.00;98900.41;5080955;28;20023;-58
2022/01/01 06:07:36;;;;;;;26.25;7.60;;;;;;;12.80;100.00;98898.78;5097155;27;20024;-57
2022/01/01 06:10:03;;;;;;;26.60;7.22;;;;;;;12.65;100.00;98904.56;5076643;28;20374;-57
2022/01/01 06:12:28;;;;;;;20.48;5.80;;;;;;;12.49;100.00;98899.00;5077876;28;20485;-61
2022/01/01 06:14:53;;;;;;;24.58;7.10;;;;;;;12.39;100.00;98908.94;5078965;28;20648;-59
2022/01/01 06:17:19;;;;;;;23.58;6.70;;;;;;;12.44;100.00;98911.38;5075916;28;20238;-58
2022/01/01 06:19:44;;;;;;;24.10;7.60;;;;;;;12.65;100.00;98904.56;5080946;28;20533;-59
2022/01/01 06:22:09;;;;;;;25.60;7.68;;;;;;;12.61;100.00;98909.06;5076020;28;20132;-57
2022/01/01 06:24:35;;;;;;;24.67;7.03;;;;;;;12.63;100.00;98906.41;5074495;28;20622;-57
2022/01/01 06:27:00;;;;;;;27.00;7.15;;;;;;;12.29;100.00;98904.91;5073441;28;20849;-59
2022/01/01 06:29:26;;;;;;;28.05;8.18;;;;;;;12.56;100.00;98907.50;5077119;28;20024;-60
2022/01/01 06:31:51;;;;;;;27.98;7.57;;;;;;;12.52;100.00;98909.38;5076196;28;20047;-59
2022/01/01 06:34:16;;;;;;;24.75;6.72;;;;;;;12.24;100.00;98918.16;5081665;28;20027;-59
2022/01/01 06:36:42;;;;;;;27.98;6.93;;;;;;;12.30;100.00;98922.34;5080784;28;20543;-57
2022/01/01 06:39:07;;;;;;;23.02;6.80;;;;;;;12.16;100.00;98922.78;5080222;28;20015;-59
2022/01/01 06:41:33;;;;;;;20.83;6.15;;;;;;;12.19;100.00;98927.91;5082263;28;20040;-59
2022/01/01 06:43:58;;;;;;;24.92;6.50;;;;;;;12.07;100.00;98923.91;5082154;28;20533;-58
2022/01/01 06:46:23;;;;;;;24.77;6.38;;;;;;;12.44;100.00;98933.19;5078592;28;20036;-58
2022/01/01 06:48:49;;;;;;;27.45;6.45;;;;;;;12.22;100.00;98926.94;5082866;28;20468;-61
2022/01/01 06:51:14;;;;;;;22.55;6.00;;;;;;;12.43;100.00;98941.94;5082007;28;20110;-58
2022/01/01 06:53:40;;;;;;;25.08;6.32;;;;;;;12.43;100.00;98944.56;5084286;28;20107;-58
2022/01/01 06:56:05;;;;;;;26.63;6.53;;;;;;;12.93;100.00;98936.72;5084812;28;20056;-58
2022/01/01 06:58:34;;;;;;;24.00;5.80;;;;;;;13.06;100.00;98941.53;5085200;28;20605;-61
2022/01/01 07:01:00;;;;;;;20.10;5.78;;;;;;;12.36;100.00;98950.06;5079108;28;20090;-58
2022/01/01 07:03:25;;;;;;;28.35;6.78;;;;;;;12.29;100.00;98954.63;5079813;28;20051;-60
2022/01/01 07:05:51;;;;;;;26.25;6.32;;;;;;;12.48;100.00;98954.84;5079048;28;20044;-59
2022/01/01 07:08:17;;;;;;;19.30;5.65;;;;;;;12.71;100.00;98964.56;5085316;28;20043;-60
2022/01/01 07:10:44;;;;;;;23.08;6.13;;;;;;;12.66;100.00;98958.63;5080119;28;20415;-59
2022/01/01 07:13:10;;;;;;;30.58;6.63;;;;;;;12.40;100.00;98960.34;5076219;28;20025;-58
2022/01/01 07:15:36;;;;;;;24.67;5.85;;;;;;;12.82;100.00;98965.03;5091480;27;20094;-59
2022/01/01 07:18:01;;;;;;;26.63;6.47;;;;;;;12.53;100.00;98959.06;5078122;28;20028;-58
2022/01/01 07:20:27;;;;;;;21.95;5.80;;;;;;;13.41;100.00;98968.22;5081821;28;20944;-59
2022/01/01 07:22:52;;;;;;;22.50;6.03;;;;;;;12.63;100.00;98974.44;5080371;28;20083;-59
2022/01/01 07:25:18;;;;;;;20.60;5.68;;;;;;;12.79;100.00;98978.25;5077144;28;20087;-57
2022/01/01 07:27:44;;;;;;;26.02;6.15;;;;;;;12.34;100.00;98978.88;5082371;28;20128;-57
2022/01/01 07:30:10;;;;;;;20.60;5.70;;;;;;;12.60;100.00;98983.25;5080775;28;20089;-57
2022/01/01 07:32:43;;;;;;;22.67;6.22;;;;;;;12.50;100.00;98987.94;5077462;28;20028;-57
2022/01/01 07:35:09;;;;;;;18.10;5.38;;;;;;;12.34;100.00;98994.56;5078181;28;20552;-59
2022/01/01 07:37:34;;;;;;;22.23;6.03;;;;;;;12.44;100.00;98995.13;5083330;28;20188;-58
2022/01/01 07:40:00;;;;;;;22.60;6.40;;;;;;;12.10;100.00;98999.66;5077929;28;20032;-59
2022/01/01 07:42:25;;;;;;;22.63;6.05;;;;;;;12.22;100.00;99000.19;5061657;28;20493;-58
2022/01/01 07:44:51;;;;;;;24.33;5.85;;;;;;;12.42;100.00;98987.31;5079195;28;20035;-58
2022/01/01 07:47:16;;;;;;;24.67;6.00;;;;;;;12.30;100.00;98990.34;5079619;27;20047;-58
2022/01/01 07:49:42;;;;;;;20.98;5.80;;;;;;;12.22;100.00;98992.34;5084890;28;20020;-60
2022/01/01 07:52:08;;;;;;;24.40;6.25;;;;;;;12.13;100.00;98993.47;5062553;28;20047;-59
2022/01/01 07:54:33;;;;;;;23.90;5.93;;;;;;;12.40;100.00;98994.38;5083075;28;20371;-59
2022/01/01 07:56:58;;;;;;;20.40;5.47;;;;;;;12.40;100.00;98996.97;5076450;27;20043;-59
2022/01/01 07:59:24;;;;;;;26.92;6.22;;;;;;;12.40;100.00;98988.28;5082873;28;20059;-59
2022/01/01 08:01:49;;;;;;;26.15;6.28;;;;;;;12.32;100.00;99001.63;5082385;28;20036;-58
2022/01/01 08:04:14;;;;;;;27.05;6.57;;;;;;;12.38;100.00;99000.56;5080382;28;20062;-58
2022/01/01 08:06:40;;;;;;;25.42;5.85;;;;;;;12.24;100.00;98993.16;5073329;28;20050;-58
2022/01/01 08:09:05;;;;;;;25.58;6.00;;;;;;;12.27;100.00;98988.66;5077122;28;20021;-59
2022/01/01 08:11:30;;;;;;;24.02;5.72;;;;;;;12.31;100.00;98985.06;5080905;28;20131;-58
2022/01/01 08:13:56;;;;;;;25.02;6.07;;;;;;;12.52;100.00;98986.13;5065189;28;20446;-57
2022/01/01 08:16:21;;;;;;;29.42;6.65;;;;;;;12.46;100.00;98978.47;5080008;28;20039;-58
2022/01/01 08:18:47;;;;;;;23.73;5.70;;;;;;;12.27;100.00;98993.06;5075426;28;20506;-58
2022/01/01 08:21:12;;;;;;;20.42;5.90;;;;;;;12.24;100.00;98993.16;5079209;28;20093;-60
2022/01/01 08:23:38;;;;;;;25.05;5.90;;;;;;;12.44;100.00;98979.41;5082132;28;20060;-56
2022/01/01 08:26:03;;;;;;;28.17;5.47;;;;;;;12.41;100.00;98971.69;5081834;28;20052;-59
2022/01/01 08:28:28;;;;;;;22.15;5.88;;;;;;;12.22;100.00;98976.66;5082692;28;20020;-57
2022/01/01 08:30:54;;;;;;;20.48;5.45;;;;;;;12.40;100.00;98988.28;5081051;28;20468;-58
2022/01/01 08:33:20;;;;;;;23.20;6.07;;;;;;;12.81;100.00;98986.03;5084431;28;20035;-59
2022/01/01 08:35:46;;;;;;;20.92;5.38;;;;;;;12.54;100.00;98984.31;5079372;28;20143;-59
2022/01/01 08:38:13;;;;;;;21.60;5.72;;;;;;;12.67;100.00;98986.53;5081559;28;20032;-58
2022/01/01 08:40:39;;;;;;;18.08;5.03;;;;;;;12.74;100.00;98982.78;5077554;28;20036;-58
2022/01/01 08:43:04;;;;;;;16.88;5.22;;;;;;;12.65;100.00;98978.72;5075984;28;20082;-58
2022/01/01 08:45:30;;;;;;;16.98;4.47;;;;;;;13.06;100.00;98986.03;5076959;28;20051;-59
2022/01/01 08:47:55;;;;;;;20.08;5.38;;;;;;;12.71;100.00;98980.25;5075551;28;20024;-61
2022/01/01 08:50:20;;;;;;;21.48;5.38;;;;;;;12.89;100.00;98977.00;5079684;28;20519;-59
2022/01/01 08:52:46;;;;;;;16.90;4.97;;;;;;;12.80;100.00;98977.34;5079140;28;20051;-59
2022/01/01 08:55:11;;;;;;;18.65;5.10;;;;;;;13.43;100.00;98984.75;5078121;28;20081;-59
2022/01/01 08:57:37;;;;;;;14.05;4.40;;;;;;;13.37;100.00;98988.44;5081415;28;20013;-60
2022/01/01 09:00:09;;;;;;;25.73;5.72;;;;;;;13.41;100.00;98999.66;5075581;28;20031;-59
2022/01/01 09:02:35;;;;;;;19.08;4.85;;;;;;;13.66;100.00;98983.91;5077985;28;20040;-59
2022/01/01 09:05:02;;;;;;;19.13;5.10;;;;;;;13.18;100.00;98985.63;5078557;28;20066;-59
2022/01/01 09:07:30;;;;;;;15.18;4.63;;;;;;;13.12;100.00;98988.44;5076803;28;20059;-59
2022/01/01 09:10:00;;;;;;;16.13;4.97;;;;;;;13.41;100.00;98990.03;5080296;28;20031;-59
2022/01/01 09:12:27;;;;;;;18.75;5.07;;;;;;;12.99;100.00;98992.41;5076152;28;20032;-58
2022/01/01 09:14:53;;;;;;;17.15;4.90;;;;;;;13.26;100.00;98996.66;5077790;28;20028;-59
2022/01/01 09:17:19;;;;;;;22.00;5.22;;;;;;;12.82;100.00;99009.56;5080598;28;20082;-59
2022/01/01 09:19:44;;;;;;;19.73;5.10;;;;;;;13.18;100.00;99009.19;5080991;28;20040;-60
2022/01/01 09:22:09;;;;;;;20.27;5.50;;;;;;;12.95;100.00;99011.75;5079042;28;20119;-58
2022/01/01 09:24:35;;;;;;;16.70;4.72;;;;;;;13.26;100.00;99006.28;5081600;28;20074;-59
2022/01/01 09:27:01;;;;;;;16.45;4.80;;;;;;;13.29;100.00;99012.28;5076910;28;20035;-58
2022/01/01 09:29:26;;;;;;;21.58;5.22;;;;;;;13.23;100.00;99020.38;5077078;28;20354;-59
2022/01/01 09:31:52;;;;;;;24.20;5.53;;;;;;;13.44;100.00;99025.78;5078241;27;20067;-58
2022/01/01 09:34:17;;;;;;;17.65;5.20;;;;;;;13.41;100.00;99025.88;5077658;28;20064;-59
2022/01/01 09:36:42;;;;;;;21.55;5.53;;;;;;;13.47;100.00;99030.88;5090523;27;20159;-61
2022/01/01 09:39:08;;;;;;;15.75;4.63;;;;;;;13.33;100.00;99030.56;5081734;28;20058;-60
2022/01/01 09:41:33;;;;;;;16.92;4.93;;;;;;;13.43;100.00;99034.53;5076840;28;20036;-60
2022/01/01 09:43:59;;;;;;;20.70;5.50;;;;;;;13.29;100.00;99033.25;5075634;28;20051;-57
2022/01/01 09:46:27;;;;;;;20.58;5.43;;;;;;;13.29;100.00;99037.63;5075357;28;20033;-60
2022/01/01 09:48:54;;;;;;;15.45;4.75;;;;;;;13.04;100.00;99043.72;5073488;28;20024;-58
2022/01/01 09:51:20;;;;;;;18.85;5.32;;;;;;;13.14;100.00;99043.41;5074349;28;20056;-60
2022/01/01 09:53:47;;;;;;;20.88;5.22;;;;;;;13.29;100.00;99029.78;5077631;28;20077;-59
2022/01/01 09:56:13;;;;;;;19.00;5.28;;;;;;;13.30;100.00;99027.09;5075977;28;20120;-59
2022/01/01 09:58:38;;;;;;;18.58;5.05;;;;;;;13.73;100.00;99032.56;5079387;28;20119;-59
2022/01/01 10:01:06;;;;;;;12.48;4.40;;;;;;;13.22;100.00;99033.53;5081314;28;20042;-57
2022/01/01 10:03:48;;;;;;;18.15;5.10;;;;;;;13.66;100.00;99021.44;5077117;28;20484;-58
2022/01/01 10:06:18;;;;;;;18.77;5.07;;;;;;;13.63;100.00;99026.78;5078216;28;20070;-58
2022/01/01 10:08:59;;;;;;;22.50;5.65;;;;;;;13.47;100.00;99025.66;5076121;28;20665;-58
2022/01/01 10:11:25;;;;;;;19.50;5.25;;;;;;;13.54;100.00;99024.50;5075587;28;20083;-58
2022/01/01 10:13:51;;;;;;;18.42;4.90;;;;;;;13.74;100.00;99022.94;5077520;28;20020;-58
2022/01/01 10:16:17;;;;;;;18.02;4.90;;;;;;;13.53;100.00;99030.69;5077098;28;20039;-59
2022/01/01 10:18:45;;;;;;;19.33;4.97;;;;;;;13.79;100.00;99026.25;5072331;28;20123;-60
2022/01/01 10:21:21;;;;;;;15.32;4.63;;;;;;;13.98;100.00;99024.59;5076417;28;20115;-61
2022/01/01 10:23:51;;;;;;;19.15;4.72;;;;;;;13.96;100.00;99022.97;5071908;28;20432;-58
2022/01/01 10:29:09;;;;;;;18.63;4.80;;;;;;;14.57;100.00;99009.16;5073205;28;20039;-57
2022/01/01 10:31:34;;;;;;;18.38;4.80;;;;;;;14.06;100.00;99014.69;5073621;28;20043;-57
2022/01/01 10:34:01;;;;;;;18.70;4.82;;;;;;;14.10;100.00;99010.19;5079187;28;20035;-59
2022/01/01 10:36:30;;;;;;;17.92;5.18;;;;;;;14.08;100.00;99006.75;5090519;28;20043;-59
2022/01/01 10:39:10;;;;;;;18.58;4.65;;;;;;;14.81;100.00;99008.19;5073455;28;20085;-58
2022/01/01 10:41:47;;;;;;;18.27;4.38;;;;;;;16.01;100.00;99012.56;5071987;28;20040;-60
2022/01/01 10:44:13;;;;;;;16.40;4.25;;;;;;;16.16;100.00;99010.97;5073398;28;20020;-58
2022/01/01 10:46:40;;;;;;;16.52;4.15;;;;;;;16.32;100.00;99000.53;5077838;28;20490;-57
2022/01/01 10:49:38;;;;;;;13.48;3.60;;;;;;;16.56;99.20;99001.97;5072147;28;20028;-60
2022/01/01 10:52:16;;;;;;;15.60;3.90;;;;;;;16.34;90.04;99004.81;5071910;28;20047;-61
2022/01/01 10:54:55;;;;;;;15.60;4.00;;;;;;;17.00;90.46;99010.38;5072770;28;20504;-59
2022/01/01 10:57:52;;;;;;;14.00;4.00;;;;;;;17.57;100.00;98996.84;5080944;28;20392;-61
2022/01/01 11:00:21;;;;;;;18.33;4.50;;;;;;;17.71;100.00;99003.09;5074286;28;20501;-58
2022/01/01 11:02:54;;;;;;;14.18;4.05;;;;;;;16.30;90.20;99007.66;5075541;28;20048;-57
2022/01/01 11:05:34;;;;;;;15.18;4.43;;;;;;;15.33;100.00;98998.94;5071516;28;20764;-58
2022/01/01 11:08:00;;;;;;;18.75;4.90;;;;;;;15.80;100.00;99009.13;5073821;28;20024;-55
2022/01/01 11:10:27;;;;;;;17.77;5.43;;;;;;;15.12;100.00;99006.84;5074865;28;20040;-55
2022/01/01 11:12:54;;;;;;;18.15;4.70;;;;;;;16.25;100.00;98994.72;5075109;28;20096;-55
2022/01/01 11:15:20;;;;;;;15.82;4.70;;;;;;;15.45;99.96;98993.16;5078915;28;20020;-54
2022/01/01 11:17:46;;;;;;;15.52;4.32;;;;;;;15.75;100.00;99000.59;5071901;28;20127;-54
2022/01/01 11:20:13;;;;;;;14.13;4.20;;;;;;;15.41;100.00;98996.84;5077969;28;20120;-57
2022/01/01 11:22:39;;;;;;;17.65;4.55;;;;;;;15.44;100.00;98991.47;5073929;28;20032;-56